sensor_id;sensor_type;location;lat;lon;timestamp;temperature;humidity
30063;DHT22;16889;67.864;24.990;2023-03-20T00:02:35;-5.30;99.90
30063;DHT22;16889;67.864;24.990;2023-03-20T00:07:23;-5.30;99.90
30063;DHT22;16889;67.864;24.990;2023-03-20T00:12:21;-5.30;99.90
30063;DHT22;16889;67.864;24.990;2023-03-20T00:17:15;-5.30;99.90
30063;DHT22;16889;67.864;24.990;2023-03-20T00:22:04;-5.30;99.90
30063;DHT22;16889;67.864;24.990;2023-03-20T00:26:51;-5.40;99.90
30063;DHT22;16889;67.864;24.990;2023-03-20T00:31:38;-5.40;99.90
30063;DHT22;16889;67.864;24.990;2023-03-20T00:36:24;-5.40;99.90
30063;DHT22;16889;67.864;24.990;2023-03-20T00:41:26;-5.40;99.90
30063;DHT22;16889;67.864;24.990;2023-03-20T00:46:13;-5.40;99.90
30063;DHT22;16889;67.864;24.990;2023-03-20T00:50:59;-5.40;99.90
30063;DHT22;16889;67.864;24.990;2023-03-20T00:55:45;-5.40;99.90
30063;DHT22;16889;67.864;24.990;2023-03-20T01:00:42;-5.40;99.90
30063;DHT22;16889;67.864;24.990;2023-03-20T01:05:28;-5.50;99.90
30063;DHT22;16889;67.864;24.990;2023-03-20T01:10:15;-5.50;99.90
30063;DHT22;16889;67.864;24.990;2023-03-20T01:15:01;-5.50;99.90
30063;DHT22;16889;67.864;24.990;2023-03-20T01:19:47;-5.50;99.90
30063;DHT22;16889;67.864;24.990;2023-03-20T01:24:33;-5.40;99.90
30063;DHT22;16889;67.864;24.990;2023-03-20T01:29:22;-5.50;99.90
30063;DHT22;16889;67.864;24.990;2023-03-20T01:34:11;-5.50;99.90
30063;DHT22;16889;67.864;24.990;2023-03-20T01:38:58;-5.50;99.90
30063;DHT22;16889;67.864;24.990;2023-03-20T01:43:44;-5.50;99.90
30063;DHT22;16889;67.864;24.990;2023-03-20T01:53:35;-5.50;99.90
30063;DHT22;16889;67.864;24.990;2023-03-20T01:58:25;-5.50;99.90
30063;DHT22;16889;67.864;24.990;2023-03-20T02:03:13;-5.50;99.90
30063;DHT22;16889;67.864;24.990;2023-03-20T02:08:41;-5.50;99.90
30063;DHT22;16889;67.864;24.990;2023-03-20T02:13:31;-5.30;99.90
30063;DHT22;16889;67.864;24.990;2023-03-20T02:18:17;-5.30;99.90
30063;DHT22;16889;67.864;24.990;2023-03-20T02:33:07;-5.30;99.90
30063;DHT22;16889;67.864;24.990;2023-03-20T02:38:03;-5.20;99.90
30063;DHT22;16889;67.864;24.990;2023-03-20T02:58:27;-4.80;99.90
30063;DHT22;16889;67.864;24.990;2023-03-20T03:03:31;-4.80;99.90
30063;DHT22;16889;67.864;24.990;2023-03-20T03:08:21;-4.80;99.90
30063;DHT22;16889;67.864;24.990;2023-03-20T03:13:14;-4.80;99.90
30063;DHT22;16889;67.864;24.990;2023-03-20T03:18:02;-4.80;99.90
30063;DHT22;16889;67.864;24.990;2023-03-20T03:22:51;-4.80;99.90
30063;DHT22;16889;67.864;24.990;2023-03-20T03:27:41;-4.90;99.90
30063;DHT22;16889;67.864;24.990;2023-03-20T03:37:48;-4.80;99.90
30063;DHT22;16889;67.864;24.990;2023-03-20T03:42:55;-4.90;99.90
30063;DHT22;16889;67.864;24.990;2023-03-20T03:47:58;-4.80;99.90
30063;DHT22;16889;67.864;24.990;2023-03-20T03:52:48;-4.90;99.90
30063;DHT22;16889;67.864;24.990;2023-03-20T03:57:41;-4.90;99.90
30063;DHT22;16889;67.864;24.990;2023-03-20T04:02:31;-4.60;99.90
30063;DHT22;16889;67.864;24.990;2023-03-20T04:07:17;-4.60;99.90
30063;DHT22;16889;67.864;24.990;2023-03-20T04:12:04;-4.70;99.90
30063;DHT22;16889;67.864;24.990;2023-03-20T04:16:50;-4.60;99.90
30063;DHT22;16889;67.864;24.990;2023-03-20T04:21:36;-4.60;99.90
30063;DHT22;16889;67.864;24.990;2023-03-20T04:26:22;-4.60;99.90
30063;DHT22;16889;67.864;24.990;2023-03-20T04:31:08;-4.60;99.90
30063;DHT22;16889;67.864;24.990;2023-03-20T04:35:55;-4.60;99.90
30063;DHT22;16889;67.864;24.990;2023-03-20T04:40:42;-4.70;99.90
30063;DHT22;16889;67.864;24.990;2023-03-20T04:45:28;-4.80;99.90
30063;DHT22;16889;67.864;24.990;2023-03-20T04:50:14;-4.90;99.90
30063;DHT22;16889;67.864;24.990;2023-03-20T04:55:00;-4.90;99.90
30063;DHT22;16889;67.864;24.990;2023-03-20T04:59:46;-4.90;99.90
30063;DHT22;16889;67.864;24.990;2023-03-20T05:04:32;-4.90;99.90
30063;DHT22;16889;67.864;24.990;2023-03-20T05:09:18;-4.90;99.90
30063;DHT22;16889;67.864;24.990;2023-03-20T05:14:04;-4.90;99.90
30063;DHT22;16889;67.864;24.990;2023-03-20T05:18:51;-5.10;99.90
30063;DHT22;16889;67.864;24.990;2023-03-20T05:23:37;-5.20;99.90
30063;DHT22;16889;67.864;24.990;2023-03-20T05:28:23;-5.30;99.90
30063;DHT22;16889;67.864;24.990;2023-03-20T05:33:09;-5.40;99.90
30063;DHT22;16889;67.864;24.990;2023-03-20T05:37:55;-5.50;99.90
30063;DHT22;16889;67.864;24.990;2023-03-20T05:42:42;-5.50;99.90
30063;DHT22;16889;67.864;24.990;2023-03-20T05:47:29;-5.70;99.90
30063;DHT22;16889;67.864;24.990;2023-03-20T05:52:15;-5.70;99.90
30063;DHT22;16889;67.864;24.990;2023-03-20T05:57:01;-5.70;99.90
30063;DHT22;16889;67.864;24.990;2023-03-20T06:01:47;-5.70;99.90
30063;DHT22;16889;67.864;24.990;2023-03-20T06:06:33;-5.70;99.90
30063;DHT22;16889;67.864;24.990;2023-03-20T06:11:22;-5.60;99.90
30063;DHT22;16889;67.864;24.990;2023-03-20T06:16:08;-5.60;99.90
30063;DHT22;16889;67.864;24.990;2023-03-20T06:20:55;-5.60;99.90
30063;DHT22;16889;67.864;24.990;2023-03-20T06:25:42;-5.50;99.90
30063;DHT22;16889;67.864;24.990;2023-03-20T06:30:28;-5.40;99.90
30063;DHT22;16889;67.864;24.990;2023-03-20T06:35:14;-5.40;99.90
30063;DHT22;16889;67.864;24.990;2023-03-20T06:40:00;-5.30;99.90
30063;DHT22;16889;67.864;24.990;2023-03-20T06:44:46;-5.20;99.90
30063;DHT22;16889;67.864;24.990;2023-03-20T06:49:32;-5.10;99.90
30063;DHT22;16889;67.864;24.990;2023-03-20T06:54:18;-5.20;99.90
30063;DHT22;16889;67.864;24.990;2023-03-20T06:59:04;-5.10;99.90
30063;DHT22;16889;67.864;24.990;2023-03-20T07:03:51;-4.80;99.90
30063;DHT22;16889;67.864;24.990;2023-03-20T07:08:37;-4.60;99.90
30063;DHT22;16889;67.864;24.990;2023-03-20T07:13:23;-3.90;99.90
30063;DHT22;16889;67.864;24.990;2023-03-20T07:18:09;-2.30;99.90
30063;DHT22;16889;67.864;24.990;2023-03-20T07:22:55;-1.30;99.90
30063;DHT22;16889;67.864;24.990;2023-03-20T07:27:41;-2.10;99.90
30063;DHT22;16889;67.864;24.990;2023-03-20T07:32:31;-3.40;99.90
30063;DHT22;16889;67.864;24.990;2023-03-20T07:37:17;-3.90;99.90
30063;DHT22;16889;67.864;24.990;2023-03-20T07:42:03;-3.30;99.90
30063;DHT22;16889;67.864;24.990;2023-03-20T07:46:49;-2.00;99.90
30063;DHT22;16889;67.864;24.990;2023-03-20T07:51:35;-1.80;99.90
30063;DHT22;16889;67.864;24.990;2023-03-20T07:56:22;-1.90;99.90
30063;DHT22;16889;67.864;24.990;2023-03-20T08:01:08;-1.60;99.90
30063;DHT22;16889;67.864;24.990;2023-03-20T08:05:54;-1.00;99.90
30063;DHT22;16889;67.864;24.990;2023-03-20T08:10:40;0.40;99.90
30063;DHT22;16889;67.864;24.990;2023-03-20T08:15:26;1.20;99.90
30063;DHT22;16889;67.864;24.990;2023-03-20T08:20:14;1.70;97.70
30063;DHT22;16889;67.864;24.990;2023-03-20T08:25:00;2.90;92.40
30063;DHT22;16889;67.864;24.990;2023-03-20T08:29:46;4.20;80.10
30063;DHT22;16889;67.864;24.990;2023-03-20T08:34:32;2.60;84.50
30063;DHT22;16889;67.864;24.990;2023-03-20T08:39:18;0.80;91.20
30063;DHT22;16889;67.864;24.990;2023-03-20T08:44:05;-0.70;95.60
30063;DHT22;16889;67.864;24.990;2023-03-20T08:48:51;-1.60;98.80
30063;DHT22;16889;67.864;24.990;2023-03-20T08:53:37;-2.10;99.90
30063;DHT22;16889;67.864;24.990;2023-03-20T08:58:23;-2.80;99.90
30063;DHT22;16889;67.864;24.990;2023-03-20T09:03:18;-2.90;99.90
30063;DHT22;16889;67.864;24.990;2023-03-20T09:08:05;-2.90;99.90
30063;DHT22;16889;67.864;24.990;2023-03-20T09:12:51;-2.80;99.90
30063;DHT22;16889;67.864;24.990;2023-03-20T09:17:37;-2.60;99.90
30063;DHT22;16889;67.864;24.990;2023-03-20T09:22:23;-2.80;99.90
30063;DHT22;16889;67.864;24.990;2023-03-20T09:27:10;-2.50;99.90
30063;DHT22;16889;67.864;24.990;2023-03-20T09:31:58;-1.90;99.90
30063;DHT22;16889;67.864;24.990;2023-03-20T09:36:44;-1.50;99.90
30063;DHT22;16889;67.864;24.990;2023-03-20T09:41:30;-1.80;99.90
30063;DHT22;16889;67.864;24.990;2023-03-20T09:52:16;-2.00;99.90
30063;DHT22;16889;67.864;24.990;2023-03-20T09:57:04;-2.40;99.90
30063;DHT22;16889;67.864;24.990;2023-03-20T10:01:59;-2.50;99.90
30063;DHT22;16889;67.864;24.990;2023-03-20T10:06:47;-2.40;99.90
30063;DHT22;16889;67.864;24.990;2023-03-20T10:26:27;-2.60;99.90
30063;DHT22;16889;67.864;24.990;2023-03-20T10:40:55;-1.80;99.90
30063;DHT22;16889;67.864;24.990;2023-03-20T10:45:49;-1.30;99.90
30063;DHT22;16889;67.864;24.990;2023-03-20T10:50:45;-1.00;99.90
30063;DHT22;16889;67.864;24.990;2023-03-20T10:55:39;-0.90;99.90
30063;DHT22;16889;67.864;24.990;2023-03-20T11:00:27;-1.30;99.90
30063;DHT22;16889;67.864;24.990;2023-03-20T11:10:14;-1.90;99.90
30063;DHT22;16889;67.864;24.990;2023-03-20T11:15:22;-2.00;99.90
30063;DHT22;16889;67.864;24.990;2023-03-20T11:20:12;-2.20;99.90
30063;DHT22;16889;67.864;24.990;2023-03-20T11:25:00;-1.80;99.90
30063;DHT22;16889;67.864;24.990;2023-03-20T11:29:48;-2.10;99.90
30063;DHT22;16889;67.864;24.990;2023-03-20T11:34:36;-2.20;99.90
30063;DHT22;16889;67.864;24.990;2023-03-20T11:39:32;-2.00;99.90
30063;DHT22;16889;67.864;24.990;2023-03-20T11:44:28;-2.00;99.90
30063;DHT22;16889;67.864;24.990;2023-03-20T11:49:22;-2.70;99.90
30063;DHT22;16889;67.864;24.990;2023-03-20T11:54:19;-3.50;99.90
30063;DHT22;16889;67.864;24.990;2023-03-20T12:08:42;-3.80;99.90
30063;DHT22;16889;67.864;24.990;2023-03-20T12:13:32;-3.50;99.90
30063;DHT22;16889;67.864;24.990;2023-03-20T12:23:30;-2.30;99.90
30063;DHT22;16889;67.864;24.990;2023-03-20T13:15:33;-3.50;99.90
30063;DHT22;16889;67.864;24.990;2023-03-20T13:20:31;-3.20;99.90
30063;DHT22;16889;67.864;24.990;2023-03-20T13:40:31;-3.00;99.90
30063;DHT22;16889;67.864;24.990;2023-03-20T13:45:38;-3.00;99.90
30063;DHT22;16889;67.864;24.990;2023-03-20T13:55:29;-3.10;99.90
30063;DHT22;16889;67.864;24.990;2023-03-20T14:05:20;-3.10;99.90
30063;DHT22;16889;67.864;24.990;2023-03-20T14:15:10;-3.10;99.90
30063;DHT22;16889;67.864;24.990;2023-03-20T14:20:12;-3.10;99.90
30063;DHT22;16889;67.864;24.990;2023-03-20T14:25:05;-3.00;99.90
30063;DHT22;16889;67.864;24.990;2023-03-20T14:29:53;-2.70;99.90
30063;DHT22;16889;67.864;24.990;2023-03-20T14:39:58;-2.50;99.90
30063;DHT22;16889;67.864;24.990;2023-03-20T14:50:13;-2.70;99.90
30063;DHT22;16889;67.864;24.990;2023-03-20T15:00:20;-2.60;99.90
30063;DHT22;16889;67.864;24.990;2023-03-20T15:05:23;-2.60;99.90
30063;DHT22;16889;67.864;24.990;2023-03-20T15:10:10;-2.60;99.90
30063;DHT22;16889;67.864;24.990;2023-03-20T15:14:59;-2.70;99.90
30063;DHT22;16889;67.864;24.990;2023-03-20T15:19:45;-2.80;99.90
30063;DHT22;16889;67.864;24.990;2023-03-20T15:24:32;-2.90;99.90
30063;DHT22;16889;67.864;24.990;2023-03-20T15:29:18;-3.00;99.90
30063;DHT22;16889;67.864;24.990;2023-03-20T15:34:12;-3.10;99.90
30063;DHT22;16889;67.864;24.990;2023-03-20T15:39:20;-3.10;99.90
30063;DHT22;16889;67.864;24.990;2023-03-20T15:49:01;-3.20;99.90
30063;DHT22;16889;67.864;24.990;2023-03-20T15:53:49;-3.30;99.90
30063;DHT22;16889;67.864;24.990;2023-03-20T15:58:35;-3.60;99.90
30063;DHT22;16889;67.864;24.990;2023-03-20T16:03:23;-4.20;99.90
30063;DHT22;16889;67.864;24.990;2023-03-20T16:08:29;-4.70;99.90
30063;DHT22;16889;67.864;24.990;2023-03-20T16:13:16;-5.30;99.90
30063;DHT22;16889;67.864;24.990;2023-03-20T16:18:04;-5.80;99.90
30063;DHT22;16889;67.864;24.990;2023-03-20T16:22:54;-6.00;99.90
30063;DHT22;16889;67.864;24.990;2023-03-20T16:27:41;-6.00;99.90
30063;DHT22;16889;67.864;24.990;2023-03-20T16:32:37;-6.10;99.90
30063;DHT22;16889;67.864;24.990;2023-03-20T16:37:30;-6.00;99.90
30063;DHT22;16889;67.864;24.990;2023-03-20T16:42:27;-5.90;99.90
30063;DHT22;16889;67.864;24.990;2023-03-20T16:47:17;-5.90;99.90
30063;DHT22;16889;67.864;24.990;2023-03-20T16:52:10;-5.90;99.90
30063;DHT22;16889;67.864;24.990;2023-03-20T16:56:57;-6.00;99.90
30063;DHT22;16889;67.864;24.990;2023-03-20T17:01:44;-6.00;99.90
30063;DHT22;16889;67.864;24.990;2023-03-20T17:06:37;-6.00;99.90
30063;DHT22;16889;67.864;24.990;2023-03-20T17:16:18;-6.50;99.90
30063;DHT22;16889;67.864;24.990;2023-03-20T17:21:05;-7.20;99.90
30063;DHT22;16889;67.864;24.990;2023-03-20T17:25:51;-7.70;99.90
30063;DHT22;16889;67.864;24.990;2023-03-20T17:30:38;-8.00;99.90
30063;DHT22;16889;67.864;24.990;2023-03-20T17:35:24;-8.10;99.90
30063;DHT22;16889;67.864;24.990;2023-03-20T17:40:19;-7.90;99.90
30063;DHT22;16889;67.864;24.990;2023-03-20T17:45:06;-7.80;99.90
30063;DHT22;16889;67.864;24.990;2023-03-20T17:49:52;-8.00;99.90
30063;DHT22;16889;67.864;24.990;2023-03-20T17:54:39;-8.20;99.90
30063;DHT22;16889;67.864;24.990;2023-03-20T17:59:25;-8.40;99.90
30063;DHT22;16889;67.864;24.990;2023-03-20T18:04:15;-8.60;99.90
30063;DHT22;16889;67.864;24.990;2023-03-20T18:09:02;-8.90;99.90
30063;DHT22;16889;67.864;24.990;2023-03-20T18:13:49;-9.30;99.90
30063;DHT22;16889;67.864;24.990;2023-03-20T18:18:35;-9.50;99.90
30063;DHT22;16889;67.864;24.990;2023-03-20T18:23:21;-9.50;99.90
30063;DHT22;16889;67.864;24.990;2023-03-20T18:28:12;-9.50;99.90
30063;DHT22;16889;67.864;24.990;2023-03-20T18:33:03;-9.40;99.90
30063;DHT22;16889;67.864;24.990;2023-03-20T18:37:49;-9.30;99.90
30063;DHT22;16889;67.864;24.990;2023-03-20T18:42:35;-9.30;99.90
30063;DHT22;16889;67.864;24.990;2023-03-20T18:47:21;-9.20;99.90
30063;DHT22;16889;67.864;24.990;2023-03-20T18:52:07;-9.40;99.90
30063;DHT22;16889;67.864;24.990;2023-03-20T18:56:53;-9.60;99.90
30063;DHT22;16889;67.864;24.990;2023-03-20T19:01:44;-9.80;99.90
30063;DHT22;16889;67.864;24.990;2023-03-20T19:06:30;-9.90;99.90
30063;DHT22;16889;67.864;24.990;2023-03-20T19:11:17;-10.00;99.90
30063;DHT22;16889;67.864;24.990;2023-03-20T19:16:09;-10.40;99.90
30063;DHT22;16889;67.864;24.990;2023-03-20T19:20:58;-10.70;99.90
30063;DHT22;16889;67.864;24.990;2023-03-20T19:25:47;-10.60;99.90
30063;DHT22;16889;67.864;24.990;2023-03-20T19:30:38;-11.10;99.90
30063;DHT22;16889;67.864;24.990;2023-03-20T19:35:25;-11.60;99.90
30063;DHT22;16889;67.864;24.990;2023-03-20T19:40:39;-11.80;99.90
30063;DHT22;16889;67.864;24.990;2023-03-20T19:45:28;-12.00;99.90
30063;DHT22;16889;67.864;24.990;2023-03-20T19:50:34;-12.20;99.90
30063;DHT22;16889;67.864;24.990;2023-03-20T19:55:23;-12.40;99.90
30063;DHT22;16889;67.864;24.990;2023-03-20T20:00:11;-12.80;99.90
30063;DHT22;16889;67.864;24.990;2023-03-20T20:04:58;-13.00;99.90
30063;DHT22;16889;67.864;24.990;2023-03-20T20:09:44;-13.20;99.90
30063;DHT22;16889;67.864;24.990;2023-03-20T20:14:30;-13.40;99.90
30063;DHT22;16889;67.864;24.990;2023-03-20T20:19:17;-13.40;99.90
30063;DHT22;16889;67.864;24.990;2023-03-20T20:24:03;-13.60;99.90
30063;DHT22;16889;67.864;24.990;2023-03-20T20:28:49;-14.00;99.90
30063;DHT22;16889;67.864;24.990;2023-03-20T20:33:35;-14.10;99.90
30063;DHT22;16889;67.864;24.990;2023-03-20T20:38:21;-14.10;99.90
30063;DHT22;16889;67.864;24.990;2023-03-20T20:43:07;-14.60;99.90
30063;DHT22;16889;67.864;24.990;2023-03-20T20:47:54;-15.00;99.90
30063;DHT22;16889;67.864;24.990;2023-03-20T20:52:41;-15.00;99.90
30063;DHT22;16889;67.864;24.990;2023-03-20T20:57:27;-14.90;99.90
30063;DHT22;16889;67.864;24.990;2023-03-20T21:02:13;-15.10;99.90
30063;DHT22;16889;67.864;24.990;2023-03-20T21:07:01;-15.20;99.90
30063;DHT22;16889;67.864;24.990;2023-03-20T21:11:47;-15.10;99.90
30063;DHT22;16889;67.864;24.990;2023-03-20T21:16:33;-15.30;99.90
30063;DHT22;16889;67.864;24.990;2023-03-20T21:21:19;-15.70;99.90
30063;DHT22;16889;67.864;24.990;2023-03-20T21:26:06;-15.80;99.90
30063;DHT22;16889;67.864;24.990;2023-03-20T21:30:52;-16.00;99.90
30063;DHT22;16889;67.864;24.990;2023-03-20T21:35:39;-16.40;99.90
30063;DHT22;16889;67.864;24.990;2023-03-20T21:40:25;-16.40;99.90
30063;DHT22;16889;67.864;24.990;2023-03-20T21:45:10;-16.60;99.90
30063;DHT22;16889;67.864;24.990;2023-03-20T21:49:57;-16.80;99.90
30063;DHT22;16889;67.864;24.990;2023-03-20T21:54:45;-17.20;99.90
30063;DHT22;16889;67.864;24.990;2023-03-20T21:59:31;-18.30;99.90
30063;DHT22;16889;67.864;24.990;2023-03-20T22:04:17;-19.00;99.90
30063;DHT22;16889;67.864;24.990;2023-03-20T22:09:03;-19.30;99.90
30063;DHT22;16889;67.864;24.990;2023-03-20T22:13:49;-19.00;99.90
30063;DHT22;16889;67.864;24.990;2023-03-20T22:18:35;-18.50;99.90
30063;DHT22;16889;67.864;24.990;2023-03-20T22:23:21;-18.40;99.90
30063;DHT22;16889;67.864;24.990;2023-03-20T22:28:07;-18.30;99.90
30063;DHT22;16889;67.864;24.990;2023-03-20T22:32:53;-18.00;99.90
30063;DHT22;16889;67.864;24.990;2023-03-20T22:37:40;-18.20;99.90
30063;DHT22;16889;67.864;24.990;2023-03-20T22:42:26;-18.10;99.90
30063;DHT22;16889;67.864;24.990;2023-03-20T22:47:12;-18.00;99.90
30063;DHT22;16889;67.864;24.990;2023-03-20T22:51:58;-18.10;99.90
30063;DHT22;16889;67.864;24.990;2023-03-20T22:56:44;-18.00;99.90
30063;DHT22;16889;67.864;24.990;2023-03-20T23:01:30;-18.30;99.90
30063;DHT22;16889;67.864;24.990;2023-03-20T23:06:19;-18.50;99.90
30063;DHT22;16889;67.864;24.990;2023-03-20T23:11:06;-18.70;99.90
30063;DHT22;16889;67.864;24.990;2023-03-20T23:15:53;-18.70;99.90
30063;DHT22;16889;67.864;24.990;2023-03-20T23:20:39;-18.50;99.90
30063;DHT22;16889;67.864;24.990;2023-03-20T23:25:25;-18.50;99.90
30063;DHT22;16889;67.864;24.990;2023-03-20T23:30:12;-18.70;99.90
30063;DHT22;16889;67.864;24.990;2023-03-20T23:34:58;-18.70;99.90
30063;DHT22;16889;67.864;24.990;2023-03-20T23:39:44;-18.60;99.90
30063;DHT22;16889;67.864;24.990;2023-03-20T23:44:30;-18.60;99.90
30063;DHT22;16889;67.864;24.990;2023-03-20T23:49:16;-18.50;99.90
30063;DHT22;16889;67.864;24.990;2023-03-20T23:54:02;-18.50;99.90
30063;DHT22;16889;67.864;24.990;2023-03-20T23:58:48;-18.50;99.90
